Time,TemperatureF,DewpointF,PressureIn,WindDirection,WindDirectionDegrees,WindSpeedMPH,WindSpeedGustMPH,Humidity,HourlyPrecipIn,Conditions,Clouds,dailyrainin,SolarRadiationWatts/m^2,SoftwareType,DateUTC
2013-01-31 00:00:00,38.5,36.0,30.29,SE,127,0.0,0.0,91,0.00,,,0.00,0,weatherlink.com 1.10,2013-01-31 08:00:00,
2013-01-31 00:15:00,37.7,35.0,30.29,SE,127,0.0,0.0,91,0.00,,,0.00,0,weatherlink.com 1.10,2013-01-31 08:15:00,
2013-01-31 00:30:00,37.3,35.0,30.29,SE,127,0.0,0.0,92,0.00,,,0.00,0,weatherlink.com 1.10,2013-01-31 08:30:00,
2013-01-31 00:45:00,37.2,35.0,30.29,SE,127,0.0,0.0,93,0.00,,,0.00,0,weatherlink.com 1.10,2013-01-31 08:45:00,
2013-01-31 01:00:00,37.9,36.0,30.29,SE,127,0.0,0.0,94,0.00,,,0.00,0,weatherlink.com 1.10,2013-01-31 09:00:00,
2013-01-31 01:15:00,38.9,38.0,30.28,SE,127,1.0,2.0,95,0.00,,,0.00,0,weatherlink.com 1.10,2013-01-31 09:15:00,
2013-01-31 01:30:00,39.7,38.0,30.29,SE,127,0.0,2.0,95,0.00,,,0.00,0,weatherlink.com 1.10,2013-01-31 09:30:00,
2013-01-31 01:45:00,39.4,38.0,30.28,SE,127,0.0,0.0,94,0.00,,,0.00,0,weatherlink.com 1.10,2013-01-31 09:45:00,
2013-01-31 02:00:00,38.1,36.0,30.29,SE,127,0.0,0.0,92,0.00,,,0.00,0,weatherlink.com 1.10,2013-01-31 10:00:00,
2013-01-31 02:15:00,36.8,35.0,30.28,SE,127,0.0,0.0,92,0.00,,,0.00,0,weatherlink.com 1.10,2013-01-31 10:15:00,
2013-01-31 02:30:00,35.2,33.0,30.29,SE,127,0.0,0.0,92,0.00,,,0.00,0,weatherlink.com 1.10,2013-01-31 10:30:00,
2013-01-31 02:45:00,34.8,33.0,30.28,SE,127,0.0,0.0,93,0.00,,,0.00,0,weatherlink.com 1.10,2013-01-31 10:45:00,
2013-01-31 03:01:00,34.2,32.0,30.28,SE,127,0.0,0.0,92,0.00,,,0.00,0,weatherlink.com 1.10,2013-01-31 11:01:00,
2013-01-31 03:16:00,33.6,32.0,30.27,SE,127,0.0,0.0,93,0.00,,,0.00,0,weatherlink.com 1.10,2013-01-31 11:16:00,
2013-01-31 03:31:00,34.1,33.0,30.28,SE,127,0.0,0.0,94,0.00,,,0.00,0,weatherlink.com 1.10,2013-01-31 11:31:00,
2013-01-31 03:46:00,34.3,33.0,30.28,SE,127,0.0,0.0,94,0.00,,,0.00,0,weatherlink.com 1.10,2013-01-31 11:46:00,
2013-01-31 04:01:00,34.6,33.0,30.28,SE,127,0.0,0.0,94,0.00,,,0.00,0,weatherlink.com 1.10,2013-01-31 12:01:00,
2013-01-31 04:16:00,34.1,33.0,30.28,SE,127,0.0,0.0,94,0.00,,,0.00,0,weatherlink.com 1.10,2013-01-31 12:16:00,
2013-01-31 04:31:00,34.1,33.0,30.28,SE,127,0.0,0.0,94,0.00,,,0.00,0,weatherlink.com 1.10,2013-01-31 12:31:00,
2013-01-31 04:46:00,35.5,34.0,30.28,SE,127,0.0,2.0,95,0.00,,,0.00,0,weatherlink.com 1.10,2013-01-31 12:46:00,
2013-01-31 05:01:00,36.4,35.0,30.28,SE,127,1.0,3.0,95,0.00,,,0.00,0,weatherlink.com 1.10,2013-01-31 13:01:00,
2013-01-31 05:16:00,36.5,35.0,30.28,SE,127,0.0,3.0,95,0.00,,,0.00,0,weatherlink.com 1.10,2013-01-31 13:16:00,
2013-01-31 05:31:00,35.9,34.0,30.28,SE,127,0.0,0.0,94,0.00,,,0.00,0,weatherlink.com 1.10,2013-01-31 13:31:00,
2013-01-31 05:46:00,34.7,33.0,30.28,SE,127,0.0,0.0,94,0.00,,,0.00,0,weatherlink.com 1.10,2013-01-31 13:46:00,
2013-01-31 06:01:00,35.1,34.0,30.28,SE,127,0.0,0.0,95,0.00,,,0.00,0,weatherlink.com 1.10,2013-01-31 14:01:00,
2013-01-31 06:16:00,35.1,34.0,30.28,SE,127,0.0,0.0,95,0.00,,,0.00,0,weatherlink.com 1.10,2013-01-31 14:16:00,
2013-01-31 06:31:00,34.2,33.0,30.28,SE,127,0.0,0.0,94,0.00,,,0.00,0,weatherlink.com 1.10,2013-01-31 14:31:00,
2013-01-31 06:46:00,33.8,32.0,30.28,SE,127,0.0,0.0,94,0.00,,,0.00,0,weatherlink.com 1.10,2013-01-31 14:46:00,
2013-01-31 07:01:00,33.5,32.0,30.29,SE,127,0.0,1.0,94,0.00,,,0.00,0,weatherlink.com 1.10,2013-01-31 15:01:00,
2013-01-31 07:16:00,33.9,33.0,30.30,SE,127,0.0,2.0,95,0.00,,,0.00,7,weatherlink.com 1.10,2013-01-31 15:16:00,
2013-01-31 07:31:00,33.9,33.0,30.30,SE,127,0.0,0.0,95,0.00,,,0.00,19,weatherlink.com 1.10,2013-01-31 15:31:00,
2013-01-31 07:46:00,34.2,33.0,30.30,SE,127,0.0,0.0,95,0.00,,,0.00,37,weatherlink.com 1.10,2013-01-31 15:46:00,
2013-01-31 08:01:00,35.3,34.0,30.30,SE,127,0.0,0.0,95,0.00,,,0.00,81,weatherlink.com 1.10,2013-01-31 16:01:00,
2013-01-31 08:16:00,36.4,35.0,30.30,SE,127,0.0,0.0,96,0.00,,,0.00,123,weatherlink.com 1.10,2013-01-31 16:16:00,
2013-01-31 08:31:00,37.6,37.0,30.31,SE,127,0.0,0.0,96,0.00,,,0.00,171,weatherlink.com 1.10,2013-01-31 16:31:00,
2013-01-31 08:46:00,39.7,39.0,30.31,SE,125,2.0,3.0,96,0.00,,,0.00,216,weatherlink.com 1.10,2013-01-31 16:46:00,
2013-01-31 09:01:00,41.6,41.0,30.31,NE,41,2.0,4.0,96,0.00,,,0.00,257,weatherlink.com 1.10,2013-01-31 17:01:00,
2013-01-31 09:16:00,43.1,42.0,30.31,NE,42,2.0,3.0,96,0.00,,,0.00,295,weatherlink.com 1.10,2013-01-31 17:16:00,
2013-01-31 09:31:00,44.7,43.0,30.31,NE,42,1.0,3.0,94,0.00,,,0.00,330,weatherlink.com 1.10,2013-01-31 17:31:00,
2013-01-31 09:47:00,46.6,44.0,30.31,NE,42,1.0,3.0,90,0.00,,,0.00,366,weatherlink.com 1.10,2013-01-31 17:47:00,
2013-01-31 10:02:00,48.3,45.0,30.31,NE,42,0.0,3.0,87,0.00,,,0.00,397,weatherlink.com 1.10,2013-01-31 18:02:00,
2013-01-31 10:17:00,49.6,45.0,30.31,NE,42,1.0,4.0,83,0.00,,,0.00,427,weatherlink.com 1.10,2013-01-31 18:17:00,
2013-01-31 10:32:00,51.3,45.0,30.31,NE,42,0.0,3.0,80,0.00,,,0.00,457,weatherlink.com 1.10,2013-01-31 18:32:00,
2013-01-31 10:47:00,53.4,46.0,30.30,NE,42,0.0,2.0,77,0.00,,,0.00,482,weatherlink.com 1.10,2013-01-31 18:47:00,
2013-01-31 11:02:00,54.6,46.0,30.30,NE,38,1.0,3.0,74,0.00,,,0.00,503,weatherlink.com 1.10,2013-01-31 19:02:00,
2013-01-31 11:17:00,55.8,47.0,30.29,NE,36,2.0,3.0,71,0.00,,,0.00,520,weatherlink.com 1.10,2013-01-31 19:17:00,
2013-01-31 11:32:00,57.1,47.0,30.29,East,98,2.0,3.0,68,0.00,,,0.00,536,weatherlink.com 1.10,2013-01-31 19:32:00,
2013-01-31 11:47:00,57.7,47.0,30.28,NNW,347,2.0,3.0,68,0.00,,,0.00,547,weatherlink.com 1.10,2013-01-31 19:47:00,
2013-01-31 12:02:00,59.3,48.0,30.27,North,5,0.0,3.0,67,0.00,,,0.00,554,weatherlink.com 1.10,2013-01-31 20:02:00,
2013-01-31 12:17:00,59.1,47.0,30.26,NNE,15,2.0,4.0,65,0.00,,,0.00,555,weatherlink.com 1.10,2013-01-31 20:17:00,
2013-01-31 12:47:00,59.9,47.0,30.25,NNE,21,1.0,4.0,63,0.00,,,0.00,552,weatherlink.com 1.10,2013-01-31 20:47:00,
2013-01-31 13:02:00,60.8,47.0,30.24,NE,41,0.0,2.0,61,0.00,,,0.00,547,weatherlink.com 1.10,2013-01-31 21:02:00,
2013-01-31 13:17:00,61.8,48.0,30.23,ESE,123,0.0,3.0,61,0.00,,,0.00,536,weatherlink.com 1.10,2013-01-31 21:17:00,
2013-01-31 13:32:00,62.5,49.0,30.23,South,174,2.0,4.0,61,0.00,,,0.00,522,weatherlink.com 1.10,2013-01-31 21:32:00,
2013-01-31 13:47:00,62.3,48.0,30.22,South,170,1.0,4.0,61,0.00,,,0.00,504,weatherlink.com 1.10,2013-01-31 21:47:00,
2013-01-31 14:02:00,62.6,48.0,30.21,SSE,155,1.0,4.0,60,0.00,,,0.00,483,weatherlink.com 1.10,2013-01-31 22:02:00,
2013-01-31 14:18:00,63.1,49.0,30.21,SE,128,0.0,3.0,60,0.00,,,0.00,459,weatherlink.com 1.10,2013-01-31 22:18:00,
2013-01-31 14:34:00,63.4,48.0,30.21,SSE,148,1.0,3.0,58,0.00,,,0.00,431,weatherlink.com 1.10,2013-01-31 22:34:00,
2013-01-31 14:48:00,63.4,48.0,30.21,NE,39,2.0,5.0,58,0.00,,,0.00,399,weatherlink.com 1.10,2013-01-31 22:48:00,
2013-01-31 15:03:00,64.0,48.0,30.21,NNE,25,1.0,4.0,57,0.00,,,0.00,366,weatherlink.com 1.10,2013-01-31 23:03:00,
2013-01-31 15:18:00,63.6,48.0,30.20,NE,54,2.0,5.0,57,0.00,,,0.00,330,weatherlink.com 1.10,2013-01-31 23:18:00,
2013-01-31 15:33:00,64.4,48.0,30.20,NE,56,0.0,3.0,56,0.00,,,0.00,297,weatherlink.com 1.10,2013-01-31 23:33:00,
2013-01-31 15:48:00,65.3,48.0,30.20,NNE,15,0.0,3.0,53,0.00,,,0.00,255,weatherlink.com 1.10,2013-01-31 23:48:00,
2013-01-31 16:03:00,64.2,48.0,30.20,NE,40,1.0,4.0,55,0.00,,,0.00,209,weatherlink.com 1.10,2013-02-01 00:03:00,
2013-01-31 16:18:00,63.7,47.0,30.19,NNE,19,0.0,5.0,55,0.00,,,0.00,156,weatherlink.com 1.10,2013-02-01 00:18:00,
2013-01-31 16:33:00,63.3,47.0,30.19,NNE,13,1.0,3.0,55,0.00,,,0.00,109,weatherlink.com 1.10,2013-02-01 00:33:00,
2013-01-31 16:48:00,62.8,48.0,30.19,NNE,15,3.0,4.0,59,0.00,,,0.00,65,weatherlink.com 1.10,2013-02-01 00:48:00,
2013-01-31 17:03:00,61.4,48.0,30.19,NNE,15,0.0,2.0,62,0.00,,,0.00,19,weatherlink.com 1.10,2013-02-01 01:03:00,
2013-01-31 17:18:00,60.1,48.0,30.19,NNE,15,0.0,0.0,64,0.00,,,0.00,11,weatherlink.com 1.10,2013-02-01 01:18:00,
2013-01-31 17:33:00,58.7,47.0,30.19,NNE,15,0.0,0.0,66,0.00,,,0.00,0,weatherlink.com 1.10,2013-02-01 01:33:00,
2013-01-31 17:48:00,57.0,46.0,30.19,NNE,15,0.0,0.0,68,0.00,,,0.00,0,weatherlink.com 1.10,2013-02-01 01:48:00,
2013-01-31 18:03:00,55.2,46.0,30.19,NNE,15,0.0,0.0,71,0.00,,,0.00,0,weatherlink.com 1.10,2013-02-01 02:03:00,
2013-01-31 18:18:00,53.6,46.0,30.19,NNE,15,0.0,0.0,74,0.00,,,0.00,0,weatherlink.com 1.10,2013-02-01 02:18:00,
2013-01-31 18:33:00,52.3,45.0,30.19,NNE,15,0.0,0.0,76,0.00,,,0.00,0,weatherlink.com 1.10,2013-02-01 02:33:00,
2013-01-31 18:48:00,51.5,45.0,30.20,NNE,15,0.0,0.0,78,0.00,,,0.00,0,weatherlink.com 1.10,2013-02-01 02:48:00,
2013-01-31 19:03:00,50.5,45.0,30.20,NNE,15,0.0,0.0,80,0.00,,,0.00,0,weatherlink.com 1.10,2013-02-01 03:03:00,
2013-01-31 19:18:00,48.2,42.0,30.19,NNE,15,0.0,1.0,80,0.00,,,0.00,0,weatherlink.com 1.10,2013-02-01 03:18:00,
2013-01-31 19:33:00,46.8,42.0,30.19,NNE,15,0.0,0.0,83,0.00,,,0.00,0,weatherlink.com 1.10,2013-02-01 03:33:00,
2013-01-31 19:48:00,45.9,42.0,30.19,NNE,15,0.0,0.0,86,0.00,,,0.00,0,weatherlink.com 1.10,2013-02-01 03:48:00,
2013-01-31 20:03:00,45.4,42.0,30.19,NNE,15,0.0,0.0,89,0.00,,,0.00,0,weatherlink.com 1.10,2013-02-01 04:03:00,
2013-01-31 20:18:00,45.3,42.0,30.19,NNE,15,0.0,0.0,88,0.00,,,0.00,0,weatherlink.com 1.10,2013-02-01 04:18:00,
2013-01-31 20:33:00,44.9,42.0,30.19,NNE,15,0.0,0.0,88,0.00,,,0.00,0,weatherlink.com 1.10,2013-02-01 04:33:00,
2013-01-31 20:48:00,43.7,40.0,30.19,NNE,15,0.0,0.0,88,0.00,,,0.00,0,weatherlink.com 1.10,2013-02-01 04:48:00,
2013-01-31 21:03:00,43.3,40.0,30.19,NNE,15,0.0,0.0,89,0.00,,,0.00,0,weatherlink.com 1.10,2013-02-01 05:03:00,
2013-01-31 21:18:00,43.3,41.0,30.19,NNE,15,0.0,0.0,91,0.00,,,0.00,0,weatherlink.com 1.10,2013-02-01 05:18:00,
2013-01-31 21:33:00,43.3,41.0,30.19,NNE,15,0.0,0.0,91,0.00,,,0.00,0,weatherlink.com 1.10,2013-02-01 05:33:00,
2013-01-31 21:48:00,42.8,40.0,30.19,NNE,15,0.0,0.0,91,0.00,,,0.00,0,weatherlink.com 1.10,2013-02-01 05:48:00,
2013-01-31 22:03:00,42.8,40.0,30.19,NNE,15,0.0,0.0,91,0.00,,,0.00,0,weatherlink.com 1.10,2013-02-01 06:03:00,
2013-01-31 22:18:00,42.8,40.0,30.19,NNE,15,0.0,0.0,91,0.00,,,0.00,0,weatherlink.com 1.10,2013-02-01 06:18:00,
2013-01-31 22:33:00,42.9,41.0,30.20,NNE,15,0.0,0.0,91,0.00,,,0.00,0,weatherlink.com 1.10,2013-02-01 06:33:00,
2013-01-31 22:48:00,42.7,41.0,30.20,NNE,15,0.0,1.0,92,0.00,,,0.00,0,weatherlink.com 1.10,2013-02-01 06:48:00,
2013-01-31 23:03:00,42.7,41.0,30.20,NNE,15,0.0,1.0,92,0.00,,,0.00,0,weatherlink.com 1.10,2013-02-01 07:03:00,
2013-01-31 23:18:00,42.0,39.0,30.20,NNE,15,0.0,1.0,90,0.00,,,0.00,0,weatherlink.com 1.10,2013-02-01 07:18:00,
2013-01-31 23:33:00,40.8,38.0,30.20,NNE,15,0.0,0.0,91,0.00,,,0.00,0,weatherlink.com 1.10,2013-02-01 07:33:00,
2013-01-31 23:48:00,41.5,40.0,30.20,NNE,15,0.0,0.0,94,0.00,,,0.00,0,weatherlink.com 1.10,2013-02-01 07:48:00,